• °C
  • Pobieranie danych...
wx

SEKCJA WYDRUKÓW, pokaż »

METAR EPCE 190500Z 36003KT 9999 BKN043 10/06
Q1017 RMK 096 079 7/7=

METAR EPDA 190500Z 04008KT 010V070 9999 OVC040 13/05
Q1018 RMK 130 059 8/8=

METAR EPDE 190500Z 29010KT 7000 BKN007 OVC014 07/06 Q1011 RMK 070 095
8/5=

METAR EPIR 190500Z NIL=

METAR EPKS 190500Z NIL=

METAR EPLK 190500Z 32006KT 9999 FEW012 BKN048 08/08 Q1014 RMK 078
100 7/2=

METAR EPLY 190500Z NIL=

METAR EPMB 190500Z NIL=

METAR EPMI 190500Z NIL=

METAR EPMM 190500Z NIL=

METAR EPNA 190500Z NIL=

METAR EPOK 190500Z 01009KT 340V050 9999 OVC037 12/04
Q1016 RMK 118 058 8/8=

METAR EPPR 190500Z 01008KT 9999 OVC034 12/05 Q1016 RMK 119 062 8/8=

METAR EPPW 190500Z NIL=

METAR EPRA 190500Z 31006KT 9999 SCT007 OVC017 07/06 Q1012 RMK 073 094
8/4=

METAR EPSN 190500Z NIL=

METAR EPTM 190500Z NIL=



Serwisy IMGW-PIB